sensor_id;sensor_type;location;lat;lon;timestamp;noise_LAeq;noise_LA_min;noise_LA_max;noise_LA01;noise_LA95
46749;Laerm;33775;47.992;11.864;2023-01-28T00:01:20;37.31;29.92;39.46;;
46749;Laerm;33775;47.992;11.864;2023-01-28T00:03:49;37.40;28.67;39.81;;
46749;Laerm;33775;47.992;11.864;2023-01-28T00:06:15;37.42;28.67;40.03;;
46749;Laerm;33775;47.992;11.864;2023-01-28T00:08:41;37.39;31.33;39.46;;
46749;Laerm;33775;47.992;11.864;2023-01-28T00:11:07;37.35;30.89;39.46;;
46749;Laerm;33775;47.992;11.864;2023-01-28T00:13:34;37.38;30.89;39.81;;
46749;Laerm;33775;47.992;11.864;2023-01-28T00:16:00;37.45;30.89;39.34;;
46749;Laerm;33775;47.992;11.864;2023-01-28T00:18:26;37.41;29.92;39.58;;
46749;Laerm;33775;47.992;11.864;2023-01-28T00:20:55;37.34;31.68;39.58;;
46749;Laerm;33775;47.992;11.864;2023-01-28T00:23:20;37.30;30.89;39.46;;
46749;Laerm;33775;47.992;11.864;2023-01-28T00:25:45;37.35;30.89;39.58;;
46749;Laerm;33775;47.992;11.864;2023-01-28T00:28:10;37.32;28.67;39.46;;
46749;Laerm;33775;47.992;11.864;2023-01-28T00:30:36;37.27;29.92;39.58;;
46749;Laerm;33775;47.992;11.864;2023-01-28T00:33:02;37.31;29.92;40.03;;
46749;Laerm;33775;47.992;11.864;2023-01-28T00:35:28;37.37;29.92;39.92;;
46749;Laerm;33775;47.992;11.864;2023-01-28T00:37:54;37.43;30.89;39.70;;
46749;Laerm;33775;47.992;11.864;2023-01-28T00:40:19;37.36;30.89;39.58;;
46749;Laerm;33775;47.992;11.864;2023-01-28T00:42:44;37.32;29.92;39.58;;
46749;Laerm;33775;47.992;11.864;2023-01-28T00:45:09;37.31;30.89;39.58;;
46749;Laerm;33775;47.992;11.864;2023-01-28T00:47:34;37.37;30.89;39.58;;
46749;Laerm;33775;47.992;11.864;2023-01-28T00:50:00;37.38;28.67;39.34;;
46749;Laerm;33775;47.992;11.864;2023-01-28T00:52:25;37.41;29.92;39.70;;
46749;Laerm;33775;47.992;11.864;2023-01-28T00:54:51;37.44;31.68;39.58;;
46749;Laerm;33775;47.992;11.864;2023-01-28T00:57:16;37.40;29.92;39.70;;
46749;Laerm;33775;47.992;11.864;2023-01-28T00:59:42;37.38;29.92;39.58;;
46749;Laerm;33775;47.992;11.864;2023-01-28T01:02:07;37.36;30.89;39.58;;
46749;Laerm;33775;47.992;11.864;2023-01-28T01:04:39;37.32;26.91;39.58;;
46749;Laerm;33775;47.992;11.864;2023-01-28T01:07:04;37.27;29.92;39.46;;
46749;Laerm;33775;47.992;11.864;2023-01-28T01:09:29;37.36;28.67;39.58;;
46749;Laerm;33775;47.992;11.864;2023-01-28T01:11:55;37.39;30.89;39.46;;
46749;Laerm;33775;47.992;11.864;2023-01-28T01:14:20;37.38;29.92;39.58;;
46749;Laerm;33775;47.992;11.864;2023-01-28T01:16:45;37.47;31.68;39.58;;
46749;Laerm;33775;47.992;11.864;2023-01-28T01:19:10;37.45;29.92;39.58;;
46749;Laerm;33775;47.992;11.864;2023-01-28T01:21:35;37.45;30.89;39.58;;
46749;Laerm;33775;47.992;11.864;2023-01-28T01:24:01;37.40;30.89;39.58;;
46749;Laerm;33775;47.992;11.864;2023-01-28T01:26:26;37.29;30.89;39.46;;
46749;Laerm;33775;47.992;11.864;2023-01-28T01:28:51;37.34;31.68;39.81;;
46749;Laerm;33775;47.992;11.864;2023-01-28T01:31:17;37.30;30.89;39.57;;
46749;Laerm;33775;47.992;11.864;2023-01-28T01:33:44;37.32;30.54;39.46;;
46749;Laerm;33775;47.992;11.864;2023-01-28T01:36:10;37.33;29.92;39.46;;
46749;Laerm;33775;47.992;11.864;2023-01-28T01:38:36;37.37;30.89;40.13;;
46749;Laerm;33775;47.992;11.864;2023-01-28T01:41:02;37.37;26.91;39.58;;
46749;Laerm;33775;47.992;11.864;2023-01-28T01:43:47;37.35;28.67;39.58;;
46749;Laerm;33775;47.992;11.864;2023-01-28T01:46:13;37.30;30.89;39.46;;
46749;Laerm;33775;47.992;11.864;2023-01-28T01:48:39;37.26;26.91;39.70;;
46749;Laerm;33775;47.992;11.864;2023-01-28T01:51:11;37.17;30.89;39.58;;
46749;Laerm;33775;47.992;11.864;2023-01-28T01:53:39;37.13;26.91;39.92;;
46749;Laerm;33775;47.992;11.864;2023-01-28T01:56:07;37.11;28.67;39.58;;
46749;Laerm;33775;47.992;11.864;2023-01-28T01:58:34;37.08;28.67;39.46;;
46749;Laerm;33775;47.992;11.864;2023-01-28T02:01:02;37.02;28.67;39.58;;
46749;Laerm;33775;47.992;11.864;2023-01-28T02:03:30;37.02;28.67;39.58;;
46749;Laerm;33775;47.992;11.864;2023-01-28T02:05:57;36.95;28.67;39.46;;
46749;Laerm;33775;47.992;11.864;2023-01-28T02:08:22;36.99;29.92;39.46;;
46749;Laerm;33775;47.992;11.864;2023-01-28T02:10:51;36.88;29.92;39.58;;
46749;Laerm;33775;47.992;11.864;2023-01-28T02:13:18;36.84;26.91;39.46;;
46749;Laerm;33775;47.992;11.864;2023-01-28T02:15:45;36.82;30.89;39.46;;
46749;Laerm;33775;47.992;11.864;2023-01-28T02:18:11;36.92;30.89;39.34;;
46749;Laerm;33775;47.992;11.864;2023-01-28T02:23:26;36.74;26.91;39.34;;
46749;Laerm;33775;47.992;11.864;2023-01-28T02:31:19;36.59;29.92;39.34;;
46749;Laerm;33775;47.992;11.864;2023-01-28T02:36:50;36.64;29.92;39.08;;
46749;Laerm;33775;47.992;11.864;2023-01-28T02:39:08;36.67;28.67;39.35;;
46749;Laerm;33775;47.992;11.864;2023-01-28T02:41:45;36.66;29.92;39.46;;
46749;Laerm;33775;47.992;11.864;2023-01-28T02:44:11;36.56;29.92;39.34;;
46749;Laerm;33775;47.992;11.864;2023-01-28T02:46:37;36.56;28.67;39.46;;
46749;Laerm;33775;47.992;11.864;2023-01-28T02:49:27;36.46;28.67;39.58;;
46749;Laerm;33775;47.992;11.864;2023-01-28T02:54:34;36.37;28.67;39.08;;
46749;Laerm;33775;47.992;11.864;2023-01-28T02:59:45;36.46;26.91;39.46;;
46749;Laerm;33775;47.992;11.864;2023-01-28T03:02:19;36.47;26.91;39.46;;
46749;Laerm;33775;47.992;11.864;2023-01-28T03:04:48;36.57;28.67;39.21;;
46749;Laerm;33775;47.992;11.864;2023-01-28T03:07:15;36.61;26.91;39.46;;
46749;Laerm;33775;47.992;11.864;2023-01-28T03:09:41;36.60;26.91;39.34;;
46749;Laerm;33775;47.992;11.864;2023-01-28T03:12:10;36.56;26.91;39.46;;
46749;Laerm;33775;47.992;11.864;2023-01-28T03:14:57;36.53;28.67;39.34;;
46749;Laerm;33775;47.992;11.864;2023-01-28T03:17:44;36.52;28.67;39.34;;
46749;Laerm;33775;47.992;11.864;2023-01-28T03:20:34;36.45;23.90;39.46;;
46749;Laerm;33775;47.992;11.864;2023-01-28T03:23:22;36.46;28.67;39.21;;
46749;Laerm;33775;47.992;11.864;2023-01-28T03:26:09;36.37;28.67;39.21;;
46749;Laerm;33775;47.992;11.864;2023-01-28T03:28:54;36.45;26.91;39.34;;
46749;Laerm;33775;47.992;11.864;2023-01-28T03:31:42;36.43;26.91;39.70;;
46749;Laerm;33775;47.992;11.864;2023-01-28T03:34:26;36.30;26.91;39.21;;
46749;Laerm;33775;47.992;11.864;2023-01-28T03:37:10;36.32;26.91;39.34;;
46749;Laerm;33775;47.992;11.864;2023-01-28T03:39:38;36.34;28.67;39.34;;
46749;Laerm;33775;47.992;11.864;2023-01-28T03:42:05;36.35;26.91;39.21;;
46749;Laerm;33775;47.992;11.864;2023-01-28T03:44:31;36.38;23.90;39.34;;
46749;Laerm;33775;47.992;11.864;2023-01-28T03:47:14;36.33;28.67;39.34;;
46749;Laerm;33775;47.992;11.864;2023-01-28T03:49:40;36.36;26.91;39.46;;
46749;Laerm;33775;47.992;11.864;2023-01-28T03:52:06;36.35;26.91;39.34;;
46749;Laerm;33775;47.992;11.864;2023-01-28T03:54:31;36.36;26.91;39.34;;
46749;Laerm;33775;47.992;11.864;2023-01-28T03:56:56;36.32;26.91;39.58;;
46749;Laerm;33775;47.992;11.864;2023-01-28T03:59:21;36.37;28.67;39.34;;
46749;Laerm;33775;47.992;11.864;2023-01-28T04:01:47;36.49;26.91;39.34;;
46749;Laerm;33775;47.992;11.864;2023-01-28T04:04:14;36.41;28.67;39.34;;
46749;Laerm;33775;47.992;11.864;2023-01-28T04:06:48;36.51;28.67;39.35;;
46749;Laerm;33775;47.992;11.864;2023-01-28T04:09:13;36.58;28.67;39.34;;
46749;Laerm;33775;47.992;11.864;2023-01-28T04:11:38;36.65;28.67;39.46;;
46749;Laerm;33775;47.992;11.864;2023-01-28T04:14:04;36.49;28.67;39.46;;
46749;Laerm;33775;47.992;11.864;2023-01-28T04:16:29;36.44;26.91;39.21;;
46749;Laerm;33775;47.992;11.864;2023-01-28T04:18:54;36.42;28.67;39.46;;
46749;Laerm;33775;47.992;11.864;2023-01-28T04:21:20;36.45;28.67;39.21;;
46749;Laerm;33775;47.992;11.864;2023-01-28T04:23:45;36.51;28.67;39.08;;
46749;Laerm;33775;47.992;11.864;2023-01-28T04:26:10;36.58;26.91;39.21;;
46749;Laerm;33775;47.992;11.864;2023-01-28T04:28:35;36.55;26.91;39.34;;
46749;Laerm;33775;47.992;11.864;2023-01-28T04:31:00;36.55;23.90;39.70;;
46749;Laerm;33775;47.992;11.864;2023-01-28T04:33:26;36.56;29.92;39.46;;
46749;Laerm;33775;47.992;11.864;2023-01-28T04:35:51;36.47;26.91;39.21;;
46749;Laerm;33775;47.992;11.864;2023-01-28T04:38:16;36.50;29.92;39.34;;
46749;Laerm;33775;47.992;11.864;2023-01-28T04:40:41;36.49;28.67;39.34;;
46749;Laerm;33775;47.992;11.864;2023-01-28T04:43:07;36.48;26.91;39.34;;
46749;Laerm;33775;47.992;11.864;2023-01-28T04:45:32;36.51;28.67;39.46;;
46749;Laerm;33775;47.992;11.864;2023-01-28T04:47:58;36.46;26.91;39.58;;
46749;Laerm;33775;47.992;11.864;2023-01-28T04:50:23;36.45;29.92;39.34;;
46749;Laerm;33775;47.992;11.864;2023-01-28T04:52:48;36.43;28.67;39.08;;
46749;Laerm;33775;47.992;11.864;2023-01-28T04:55:13;36.50;28.32;39.21;;
46749;Laerm;33775;47.992;11.864;2023-01-28T04:57:38;36.42;28.67;39.58;;
46749;Laerm;33775;47.992;11.864;2023-01-28T05:00:04;36.41;26.91;39.46;;
46749;Laerm;33775;47.992;11.864;2023-01-28T05:02:29;36.45;28.67;39.21;;
46749;Laerm;33775;47.992;11.864;2023-01-28T05:04:54;36.49;29.92;39.58;;
46749;Laerm;33775;47.992;11.864;2023-01-28T05:07:19;36.51;30.89;39.46;;
46749;Laerm;33775;47.992;11.864;2023-01-28T05:09:45;36.51;28.67;39.21;;
46749;Laerm;33775;47.992;11.864;2023-01-28T05:12:10;36.50;29.57;39.34;;
46749;Laerm;33775;47.992;11.864;2023-01-28T05:14:35;36.51;23.90;39.58;;
46749;Laerm;33775;47.992;11.864;2023-01-28T05:17:00;36.45;23.90;39.34;;
46749;Laerm;33775;47.992;11.864;2023-01-28T05:19:25;36.41;28.67;39.46;;
46749;Laerm;33775;47.992;11.864;2023-01-28T05:21:51;36.37;29.92;39.21;;
46749;Laerm;33775;47.992;11.864;2023-01-28T05:24:16;36.39;26.91;39.70;;
46749;Laerm;33775;47.992;11.864;2023-01-28T05:26:41;36.36;5.00;39.58;;
46749;Laerm;33775;47.992;11.864;2023-01-28T05:29:06;36.42;29.92;39.58;;
46749;Laerm;33775;47.992;11.864;2023-01-28T05:31:31;36.51;23.90;39.21;;
46749;Laerm;33775;47.992;11.864;2023-01-28T05:33:57;36.49;28.67;39.46;;
46749;Laerm;33775;47.992;11.864;2023-01-28T05:36:22;36.48;23.90;39.21;;
46749;Laerm;33775;47.992;11.864;2023-01-28T05:38:47;36.54;28.67;39.92;;
46749;Laerm;33775;47.992;11.864;2023-01-28T05:41:12;36.57;26.91;39.58;;
46749;Laerm;33775;47.992;11.864;2023-01-28T05:43:37;36.60;26.91;39.34;;
46749;Laerm;33775;47.992;11.864;2023-01-28T05:46:03;36.62;5.00;39.46;;
46749;Laerm;33775;47.992;11.864;2023-01-28T05:48:28;36.57;26.91;39.34;;
46749;Laerm;33775;47.992;11.864;2023-01-28T05:50:53;36.61;29.57;39.34;;
46749;Laerm;33775;47.992;11.864;2023-01-28T05:53:19;36.67;26.91;39.81;;
46749;Laerm;33775;47.992;11.864;2023-01-28T05:55:48;36.64;28.67;39.70;;
46749;Laerm;33775;47.992;11.864;2023-01-28T05:58:13;36.67;26.91;39.21;;
46749;Laerm;33775;47.992;11.864;2023-01-28T06:00:38;36.62;29.92;39.46;;
46749;Laerm;33775;47.992;11.864;2023-01-28T06:03:03;36.63;28.67;39.21;;
46749;Laerm;33775;47.992;11.864;2023-01-28T06:05:28;36.55;28.67;39.21;;
46749;Laerm;33775;47.992;11.864;2023-01-28T06:07:54;36.61;26.91;39.08;;
46749;Laerm;33775;47.992;11.864;2023-01-28T06:10:19;36.63;30.89;39.46;;
46749;Laerm;33775;47.992;11.864;2023-01-28T06:12:44;36.61;28.67;39.21;;
46749;Laerm;33775;47.992;11.864;2023-01-28T06:15:10;36.61;29.92;39.58;;
46749;Laerm;33775;47.992;11.864;2023-01-28T06:17:35;36.61;29.92;39.34;;
46749;Laerm;33775;47.992;11.864;2023-01-28T06:20:00;36.70;26.91;39.34;;
46749;Laerm;33775;47.992;11.864;2023-01-28T06:22:25;36.65;29.92;39.21;;
46749;Laerm;33775;47.992;11.864;2023-01-28T06:24:51;36.73;28.67;39.70;;
46749;Laerm;33775;47.992;11.864;2023-01-28T06:27:16;36.66;29.92;39.21;;
46749;Laerm;33775;47.992;11.864;2023-01-28T06:29:41;36.72;29.92;39.92;;
46749;Laerm;33775;47.992;11.864;2023-01-28T06:32:06;36.72;28.67;39.46;;
46749;Laerm;33775;47.992;11.864;2023-01-28T06:34:32;36.76;23.90;39.34;;
46749;Laerm;33775;47.992;11.864;2023-01-28T06:36:57;36.70;30.89;39.46;;
46749;Laerm;33775;47.992;11.864;2023-01-28T06:39:22;36.76;26.91;39.58;;
46749;Laerm;33775;47.992;11.864;2023-01-28T06:41:48;36.85;26.56;39.34;;
46749;Laerm;33775;47.992;11.864;2023-01-28T06:44:13;36.77;28.67;39.21;;
46749;Laerm;33775;47.992;11.864;2023-01-28T06:46:38;36.70;28.67;39.34;;
46749;Laerm;33775;47.992;11.864;2023-01-28T06:49:04;36.61;30.54;39.46;;
46749;Laerm;33775;47.992;11.864;2023-01-28T06:51:29;36.67;28.67;39.46;;
46749;Laerm;33775;47.992;11.864;2023-01-28T06:53:54;36.80;28.67;39.23;;
46749;Laerm;33775;47.992;11.864;2023-01-28T06:56:19;36.86;29.92;39.34;;
46749;Laerm;33775;47.992;11.864;2023-01-28T06:58:45;36.82;26.91;39.34;;
46749;Laerm;33775;47.992;11.864;2023-01-28T07:01:10;36.80;30.54;39.21;;
46749;Laerm;33775;47.992;11.864;2023-01-28T07:03:35;36.75;29.92;39.34;;
46749;Laerm;33775;47.992;11.864;2023-01-28T07:06:01;36.71;29.57;39.21;;
46749;Laerm;33775;47.992;11.864;2023-01-28T07:08:26;36.70;23.90;39.46;;
46749;Laerm;33775;47.992;11.864;2023-01-28T07:10:51;36.68;28.67;39.21;;
46749;Laerm;33775;47.992;11.864;2023-01-28T07:13:16;36.71;30.89;39.34;;
46749;Laerm;33775;47.992;11.864;2023-01-28T07:15:41;36.66;30.89;39.23;;
46749;Laerm;33775;47.992;11.864;2023-01-28T07:18:07;36.73;28.67;39.70;;
46749;Laerm;33775;47.992;11.864;2023-01-28T07:20:32;36.69;29.92;39.46;;
46749;Laerm;33775;47.992;11.864;2023-01-28T07:22:57;36.61;29.92;39.21;;
46749;Laerm;33775;47.992;11.864;2023-01-28T07:25:22;36.44;26.91;39.46;;
46749;Laerm;33775;47.992;11.864;2023-01-28T07:27:48;36.44;23.90;39.21;;
46749;Laerm;33775;47.992;11.864;2023-01-28T07:30:14;36.49;26.91;39.21;;
46749;Laerm;33775;47.992;11.864;2023-01-28T07:32:39;36.48;28.67;39.23;;
46749;Laerm;33775;47.992;11.864;2023-01-28T07:35:04;36.46;26.91;39.46;;
46749;Laerm;33775;47.992;11.864;2023-01-28T07:37:30;36.46;29.92;39.58;;
46749;Laerm;33775;47.992;11.864;2023-01-28T07:39:55;36.44;26.91;39.70;;
46749;Laerm;33775;47.992;11.864;2023-01-28T07:42:20;36.38;28.67;39.70;;
46749;Laerm;33775;47.992;11.864;2023-01-28T07:44:45;36.29;29.57;39.70;;
46749;Laerm;33775;47.992;11.864;2023-01-28T07:47:10;36.32;28.67;39.23;;
46749;Laerm;33775;47.992;11.864;2023-01-28T07:49:36;36.29;28.67;39.21;;
46749;Laerm;33775;47.992;11.864;2023-01-28T07:52:03;36.28;29.92;39.21;;
46749;Laerm;33775;47.992;11.864;2023-01-28T07:54:29;36.30;28.67;39.21;;
46749;Laerm;33775;47.992;11.864;2023-01-28T07:56:54;36.25;28.67;39.34;;
46749;Laerm;33775;47.992;11.864;2023-01-28T07:59:19;36.25;26.91;39.21;;
46749;Laerm;33775;47.992;11.864;2023-01-28T08:01:44;36.27;29.92;39.46;;
46749;Laerm;33775;47.992;11.864;2023-01-28T08:04:09;36.25;29.92;39.46;;
46749;Laerm;33775;47.992;11.864;2023-01-28T08:06:35;36.20;29.92;39.34;;
46749;Laerm;33775;47.992;11.864;2023-01-28T08:09:02;36.24;26.91;39.21;;
46749;Laerm;33775;47.992;11.864;2023-01-28T08:11:29;36.21;5.00;39.46;;
46749;Laerm;33775;47.992;11.864;2023-01-28T08:13:55;36.20;28.67;39.34;;
46749;Laerm;33775;47.992;11.864;2023-01-28T08:16:20;36.24;28.67;39.70;;
46749;Laerm;33775;47.992;11.864;2023-01-28T08:18:45;36.25;28.67;39.34;;
46749;Laerm;33775;47.992;11.864;2023-01-28T08:21:10;36.25;29.92;39.34;;
46749;Laerm;33775;47.992;11.864;2023-01-28T08:23:35;36.16;28.67;39.21;;
46749;Laerm;33775;47.992;11.864;2023-01-28T08:26:00;36.20;28.67;39.08;;
46749;Laerm;33775;47.992;11.864;2023-01-28T08:28:26;36.17;26.91;39.46;;
46749;Laerm;33775;47.992;11.864;2023-01-28T08:30:51;36.18;28.67;39.08;;
46749;Laerm;33775;47.992;11.864;2023-01-28T08:33:17;36.20;29.92;39.21;;
46749;Laerm;33775;47.992;11.864;2023-01-28T08:35:43;36.19;26.91;39.08;;
46749;Laerm;33775;47.992;11.864;2023-01-28T08:38:09;36.18;29.92;39.34;;
46749;Laerm;33775;47.992;11.864;2023-01-28T08:40:35;36.20;28.67;39.58;;
46749;Laerm;33775;47.992;11.864;2023-01-28T08:43:01;36.17;29.92;39.34;;
46749;Laerm;33775;47.992;11.864;2023-01-28T08:45:27;36.20;28.67;39.08;;
46749;Laerm;33775;47.992;11.864;2023-01-28T08:47:57;36.23;28.67;39.34;;
46749;Laerm;33775;47.992;11.864;2023-01-28T08:50:23;36.24;26.91;39.46;;
46749;Laerm;33775;47.992;11.864;2023-01-28T08:52:53;36.19;28.67;39.46;;
46749;Laerm;33775;47.992;11.864;2023-01-28T08:55:19;36.22;28.67;39.08;;
46749;Laerm;33775;47.992;11.864;2023-01-28T08:57:44;36.21;26.91;39.70;;
46749;Laerm;33775;47.992;11.864;2023-01-28T09:00:09;36.26;28.67;39.58;;
46749;Laerm;33775;47.992;11.864;2023-01-28T09:02:36;36.23;28.67;39.70;;
46749;Laerm;33775;47.992;11.864;2023-01-28T09:05:01;36.23;29.92;39.46;;
46749;Laerm;33775;47.992;11.864;2023-01-28T09:07:26;36.27;28.67;39.34;;
46749;Laerm;33775;47.992;11.864;2023-01-28T09:09:51;36.30;28.67;39.46;;
46749;Laerm;33775;47.992;11.864;2023-01-28T09:12:17;36.26;28.67;39.46;;
46749;Laerm;33775;47.992;11.864;2023-01-28T09:14:42;36.31;29.92;39.34;;
46749;Laerm;33775;47.992;11.864;2023-01-28T09:17:07;36.33;29.57;39.58;;
46749;Laerm;33775;47.992;11.864;2023-01-28T09:19:32;36.32;29.92;39.81;;
46749;Laerm;33775;47.992;11.864;2023-01-28T09:21:57;36.39;30.89;39.34;;
46749;Laerm;33775;47.992;11.864;2023-01-28T09:24:23;36.46;29.92;39.46;;
46749;Laerm;33775;47.992;11.864;2023-01-28T09:26:48;36.41;28.67;39.46;;
46749;Laerm;33775;47.992;11.864;2023-01-28T09:29:14;36.44;29.92;39.70;;
46749;Laerm;33775;47.992;11.864;2023-01-28T09:31:40;36.47;29.92;39.34;;
46749;Laerm;33775;47.992;11.864;2023-01-28T09:34:05;36.52;31.33;39.58;;
46749;Laerm;33775;47.992;11.864;2023-01-28T09:36:30;36.54;30.89;39.81;;
46749;Laerm;33775;47.992;11.864;2023-01-28T09:38:56;36.53;30.89;39.46;;
46749;Laerm;33775;47.992;11.864;2023-01-28T09:41:26;36.57;29.92;39.46;;
46749;Laerm;33775;47.992;11.864;2023-01-28T09:43:58;36.56;29.92;39.81;;
46749;Laerm;33775;47.992;11.864;2023-01-28T09:46:29;36.51;28.67;39.57;;
46749;Laerm;33775;47.992;11.864;2023-01-28T09:48:55;36.52;30.89;39.81;;
46749;Laerm;33775;47.992;11.864;2023-01-28T09:53:58;36.61;29.92;39.58;;
46749;Laerm;33775;47.992;11.864;2023-01-28T09:56:25;36.64;30.89;39.58;;
46749;Laerm;33775;47.992;11.864;2023-01-28T09:58:53;36.64;29.92;39.58;;
46749;Laerm;33775;47.992;11.864;2023-01-28T10:01:37;36.60;30.89;39.92;;
46749;Laerm;33775;47.992;11.864;2023-01-28T10:04:08;36.63;29.57;39.70;;
46749;Laerm;33775;47.992;11.864;2023-01-28T10:09:31;36.60;29.92;39.70;;
46749;Laerm;33775;47.992;11.864;2023-01-28T10:14:37;36.62;29.92;39.70;;
46749;Laerm;33775;47.992;11.864;2023-01-28T10:17:15;36.56;30.89;39.70;;
46749;Laerm;33775;47.992;11.864;2023-01-28T10:22:17;36.56;28.67;39.92;;
46749;Laerm;33775;47.992;11.864;2023-01-28T10:24:46;36.56;30.89;39.70;;
46749;Laerm;33775;47.992;11.864;2023-01-28T10:27:14;36.52;29.92;39.70;;
46749;Laerm;33775;47.992;11.864;2023-01-28T10:29:40;36.49;29.92;39.46;;
46749;Laerm;33775;47.992;11.864;2023-01-28T10:34:35;36.50;29.92;39.58;;
46749;Laerm;33775;47.992;11.864;2023-01-28T10:37:01;36.50;29.92;39.46;;
46749;Laerm;33775;47.992;11.864;2023-01-28T10:39:26;36.50;30.89;39.81;;
46749;Laerm;33775;47.992;11.864;2023-01-28T10:41:52;36.46;28.67;39.58;;
46749;Laerm;33775;47.992;11.864;2023-01-28T10:44:20;36.48;26.91;39.46;;
46749;Laerm;33775;47.992;11.864;2023-01-28T10:46:50;36.50;28.67;39.58;;
46749;Laerm;33775;47.992;11.864;2023-01-28T10:49:21;36.48;23.90;39.81;;
46749;Laerm;33775;47.992;11.864;2023-01-28T10:51:49;36.49;29.92;39.70;;
46749;Laerm;33775;47.992;11.864;2023-01-28T10:54:18;36.47;30.89;39.34;;
46749;Laerm;33775;47.992;11.864;2023-01-28T10:56:44;36.47;30.89;39.46;;
46749;Laerm;33775;47.992;11.864;2023-01-28T11:01:46;36.48;29.92;39.46;;
46749;Laerm;33775;47.992;11.864;2023-01-28T11:04:21;36.48;29.92;39.58;;
46749;Laerm;33775;47.992;11.864;2023-01-28T11:09:22;36.45;28.67;39.70;;
46749;Laerm;33775;47.992;11.864;2023-01-28T11:11:47;36.47;28.67;39.58;;
46749;Laerm;33775;47.992;11.864;2023-01-28T11:14:20;36.43;28.67;39.34;;
46749;Laerm;33775;47.992;11.864;2023-01-28T11:16:45;36.48;29.92;39.92;;
46749;Laerm;33775;47.992;11.864;2023-01-28T11:19:11;36.45;29.92;39.34;;
46749;Laerm;33775;47.992;11.864;2023-01-28T11:21:36;36.46;28.67;39.81;;
46749;Laerm;33775;47.992;11.864;2023-01-28T11:24:03;36.48;30.89;39.58;;
46749;Laerm;33775;47.992;11.864;2023-01-28T11:26:30;36.46;28.67;39.58;;
46749;Laerm;33775;47.992;11.864;2023-01-28T11:28:56;36.49;29.92;39.68;;
46749;Laerm;33775;47.992;11.864;2023-01-28T11:31:22;36.47;29.92;39.70;;
46749;Laerm;33775;47.992;11.864;2023-01-28T11:33:55;36.50;29.92;39.58;;
46749;Laerm;33775;47.992;11.864;2023-01-28T11:36:24;36.49;29.92;39.34;;
46749;Laerm;33775;47.992;11.864;2023-01-28T11:41:15;36.48;29.92;39.58;;
46749;Laerm;33775;47.992;11.864;2023-01-28T11:43:41;36.49;29.92;39.70;;
46749;Laerm;33775;47.992;11.864;2023-01-28T11:48:57;36.50;29.92;39.70;;
46749;Laerm;33775;47.992;11.864;2023-01-28T12:01:28;36.50;29.92;40.03;;
46749;Laerm;33775;47.992;11.864;2023-01-28T12:04:07;36.48;28.67;39.58;;
46749;Laerm;33775;47.992;11.864;2023-01-28T12:09:32;36.49;29.92;39.70;;
46749;Laerm;33775;47.992;11.864;2023-01-28T12:12:19;36.49;29.92;39.58;;
46749;Laerm;33775;47.992;11.864;2023-01-28T12:17:15;36.47;28.67;39.21;;
46749;Laerm;33775;47.992;11.864;2023-01-28T12:22:14;36.48;28.67;39.70;;
46749;Laerm;33775;47.992;11.864;2023-01-28T12:24:57;36.48;29.92;39.58;;
46749;Laerm;33775;47.992;11.864;2023-01-28T12:32:26;36.50;29.92;40.23;;
46749;Laerm;33775;47.992;11.864;2023-01-28T12:42:57;36.49;28.67;39.58;;
46749;Laerm;33775;47.992;11.864;2023-01-28T12:45:26;36.50;29.92;39.70;;
46749;Laerm;33775;47.992;11.864;2023-01-28T12:48:06;36.47;29.92;39.70;;
46749;Laerm;33775;47.992;11.864;2023-01-28T12:50:38;36.48;30.89;39.70;;
46749;Laerm;33775;47.992;11.864;2023-01-28T12:55:47;36.48;30.89;39.58;;
46749;Laerm;33775;47.992;11.864;2023-01-28T12:58:21;36.45;28.67;39.46;;
46749;Laerm;33775;47.992;11.864;2023-01-28T13:00:53;36.44;30.89;39.58;;
46749;Laerm;33775;47.992;11.864;2023-01-28T13:05:51;36.46;28.67;40.03;;
46749;Laerm;33775;47.992;11.864;2023-01-28T13:08:20;36.45;29.92;39.58;;
46749;Laerm;33775;47.992;11.864;2023-01-28T13:10:47;36.42;28.67;39.70;;
46749;Laerm;33775;47.992;11.864;2023-01-28T13:13:24;36.44;28.67;39.92;;
46749;Laerm;33775;47.992;11.864;2023-01-28T13:15:51;36.43;26.91;39.92;;
46749;Laerm;33775;47.992;11.864;2023-01-28T13:21:01;36.44;28.67;39.58;;
46749;Laerm;33775;47.992;11.864;2023-01-28T13:26:07;36.43;28.67;39.46;;
46749;Laerm;33775;47.992;11.864;2023-01-28T13:28:33;36.48;28.67;39.81;;
46749;Laerm;33775;47.992;11.864;2023-01-28T13:31:03;36.46;28.67;40.08;;
46749;Laerm;33775;47.992;11.864;2023-01-28T13:33:36;36.46;30.89;39.92;;
46749;Laerm;33775;47.992;11.864;2023-01-28T13:36:17;36.46;28.67;39.46;;
46749;Laerm;33775;47.992;11.864;2023-01-28T13:38:44;36.46;29.92;39.81;;
46749;Laerm;33775;47.992;11.864;2023-01-28T13:41:10;36.48;30.89;39.46;;
46749;Laerm;33775;47.992;11.864;2023-01-28T13:43:36;36.46;30.89;39.34;;
46749;Laerm;33775;47.992;11.864;2023-01-28T13:46:09;36.46;28.67;39.70;;
46749;Laerm;33775;47.992;11.864;2023-01-28T13:48:45;36.46;29.92;39.92;;
46749;Laerm;33775;47.992;11.864;2023-01-28T13:51:56;36.49;30.54;39.81;;
46749;Laerm;33775;47.992;11.864;2023-01-28T13:54:05;36.48;30.89;39.46;;
46749;Laerm;33775;47.992;11.864;2023-01-28T13:56:48;36.48;28.67;39.92;;
46749;Laerm;33775;47.992;11.864;2023-01-28T14:04:38;36.49;29.92;39.46;;
46749;Laerm;33775;47.992;11.864;2023-01-28T14:12:44;36.51;26.91;39.58;;
46749;Laerm;33775;47.992;11.864;2023-01-28T14:15:18;36.50;29.92;39.92;;
46749;Laerm;33775;47.992;11.864;2023-01-28T14:17:47;36.50;28.67;39.70;;
46749;Laerm;33775;47.992;11.864;2023-01-28T14:22:44;36.53;30.89;40.03;;
46749;Laerm;33775;47.992;11.864;2023-01-28T14:25:14;36.52;26.91;39.58;;
46749;Laerm;33775;47.992;11.864;2023-01-28T14:27:41;36.52;29.92;39.70;;
46749;Laerm;33775;47.992;11.864;2023-01-28T14:32:43;36.48;29.92;39.81;;
46749;Laerm;33775;47.992;11.864;2023-01-28T14:35:11;36.51;29.92;39.46;;
46749;Laerm;33775;47.992;11.864;2023-01-28T14:37:40;36.56;30.89;39.92;;
46749;Laerm;33775;47.992;11.864;2023-01-28T14:40:06;36.61;29.92;40.03;;
46749;Laerm;33775;47.992;11.864;2023-01-28T14:42:39;36.58;29.92;39.58;;
46749;Laerm;33775;47.992;11.864;2023-01-28T14:50:23;36.60;30.89;39.70;;
46749;Laerm;33775;47.992;11.864;2023-01-28T15:00:16;36.65;31.68;39.92;;
46749;Laerm;33775;47.992;11.864;2023-01-28T15:02:42;36.64;29.92;39.58;;
46749;Laerm;33775;47.992;11.864;2023-01-28T15:05:08;36.63;28.67;40.23;;
46749;Laerm;33775;47.992;11.864;2023-01-28T15:07:34;36.63;30.89;39.58;;
46749;Laerm;33775;47.992;11.864;2023-01-28T15:10:06;36.61;29.92;39.58;;
46749;Laerm;33775;47.992;11.864;2023-01-28T15:12:33;36.60;30.89;39.34;;
46749;Laerm;33775;47.992;11.864;2023-01-28T15:15:09;36.55;29.92;39.81;;
46749;Laerm;33775;47.992;11.864;2023-01-28T15:17:35;36.55;29.92;40.33;;
46749;Laerm;33775;47.992;11.864;2023-01-28T15:20:00;36.60;30.89;39.92;;
46749;Laerm;33775;47.992;11.864;2023-01-28T15:22:26;36.53;30.89;39.58;;
46749;Laerm;33775;47.992;11.864;2023-01-28T15:24:52;36.55;29.92;39.70;;